Time;durP1;ratioP1;P1;durP2;ratioP2;P2;SDS_P1;SDS_P2;PMS_P1;PMS_P2;Temp;Humidity;BMP_temperature;BMP_pressure;BME280_temperature;BME280_humidity;BME280_pressure;Samples;Min_cycle;Max_cycle;Signal;HPM_P1;HPM_P2
2020/12/27 00:00:29;;;;;;;9.13;5.67;;;-0.50;70.60;;;0.00;61.35;97543.28;5041896;28;20041;-46
2020/12/27 00:02:56;;;;;;;12.80;5.37;;;-0.60;70.60;;;-0.01;62.13;97536.34;5041827;28;20057;-46
2020/12/27 00:05:23;;;;;;;9.03;5.20;;;-0.50;70.50;;;-0.02;62.24;97532.03;5041344;28;20045;-46
2020/12/27 00:07:51;;;;;;;8.97;5.57;;;-0.60;70.50;;;-0.06;62.13;97536.66;5041574;28;20120;-44
2020/12/27 00:10:18;;;;;;;10.93;5.43;;;-0.60;70.50;;;-0.05;62.22;97524.41;5041453;28;20060;-48
2020/12/27 00:12:46;;;;;;;9.63;5.07;;;-0.60;70.50;;;-0.05;61.83;97524.41;5041768;28;20052;-47
2020/12/27 00:15:14;;;;;;;11.97;5.83;;;-0.60;70.20;;;-0.05;61.75;97527.03;5041327;28;20045;-44
2020/12/27 00:17:43;;;;;;;10.47;5.17;;;-0.50;70.50;;;-0.05;62.06;97517.38;5041688;28;20048;-46
2020/12/27 00:20:11;;;;;;;9.00;4.47;;;-0.50;70.10;;;-0.07;61.47;97514.03;5041390;28;20268;-49
2020/12/27 00:22:38;;;;;;;8.77;4.40;;;-0.60;70.20;;;-0.08;61.82;97498.41;5041538;28;20053;-47
2020/12/27 00:25:05;;;;;;;10.17;4.50;;;-0.60;70.20;;;-0.08;62.01;97493.19;5041194;28;20068;-45
2020/12/27 00:27:33;;;;;;;9.53;4.37;;;-0.60;70.10;;;-0.09;61.55;97486.28;5041615;28;20053;-49
2020/12/27 00:30:00;;;;;;;6.83;4.17;;;-0.60;70.30;;;-0.08;61.71;97474.88;5041441;28;20059;-46
2020/12/27 00:32:29;;;;;;;8.20;3.83;;;-0.60;70.10;;;-0.07;61.35;97471.31;5041454;28;20063;-47
2020/12/27 00:34:56;;;;;;;7.10;3.50;;;-0.60;70.00;;;-0.08;62.03;97465.25;5040044;28;20049;-46
2020/12/27 00:37:24;;;;;;;7.57;4.63;;;-0.50;70.10;;;-0.08;61.53;97456.53;5041539;28;20046;-47
2020/12/27 00:39:54;;;;;;;10.33;5.10;;;-0.60;69.90;;;-0.08;61.74;97446.94;5044619;28;20056;-46
2020/12/27 00:42:21;;;;;;;5.93;3.53;;;-0.60;69.80;;;-0.10;61.92;97443.56;5045414;28;20079;-46
2020/12/27 00:44:49;;;;;;;8.33;4.43;;;-0.60;69.90;;;-0.09;61.27;97436.56;5044852;28;20120;-47
2020/12/27 00:47:17;;;;;;;8.37;4.10;;;-0.60;70.80;;;-0.09;61.39;97419.06;5045166;28;20041;-46
2020/12/27 00:49:44;;;;;;;7.97;3.87;;;-0.60;69.80;;;-0.08;61.75;97417.28;5045199;28;20059;-48
2020/12/27 00:52:12;;;;;;;5.70;3.87;;;-0.60;69.60;;;-0.07;61.39;97417.19;5045084;28;20049;-49
2020/12/27 00:54:39;;;;;;;6.30;3.97;;;-0.50;69.50;;;-0.06;62.04;97413.66;5044973;28;20059;-46
2020/12/27 00:57:07;;;;;;;7.00;4.30;;;-0.50;69.40;;;-0.05;61.83;97397.00;5043364;28;20045;-45
2020/12/27 00:59:34;;;;;;;5.60;3.93;;;-0.50;69.40;;;-0.06;61.93;97387.47;5045266;28;20049;-45
2020/12/27 01:02:02;;;;;;;7.77;3.77;;;-0.50;69.10;;;-0.06;61.42;97386.63;5044877;28;20053;-45
2020/12/27 01:04:48;;;;;;;7.63;3.80;;;-0.50;69.00;;;-0.06;61.94;97391.84;5048664;28;20045;-45
2020/12/27 01:07:21;;;;;;;7.50;4.40;;;-0.50;69.30;;;-0.03;60.96;97381.19;5043419;28;20053;-46
2020/12/27 01:10:03;;;;;;;6.67;3.40;;;-0.50;68.50;;;-0.05;61.83;97381.28;5043316;28;20383;-46
2020/12/27 01:12:30;;;;;;;8.10;4.00;;;-0.50;69.10;;;-0.04;61.42;97385.59;5043528;28;20059;-45
2020/12/27 01:14:58;;;;;;;8.07;4.23;;;-0.50;69.20;;;-0.04;61.28;97371.66;5044354;28;20057;-47
2020/12/27 01:18:00;;;;;;;7.03;4.27;;;-0.50;69.10;;;-0.02;61.79;97372.38;5042916;28;20056;-44
2020/12/27 01:20:28;;;;;;;8.10;4.23;;;-0.50;68.70;;;-0.02;60.90;97365.41;5043084;28;20064;-45
2020/12/27 01:22:57;;;;;;;9.03;4.37;;;-0.40;68.90;;;-0.01;60.90;97353.97;5044586;28;20061;-49
2020/12/27 01:25:31;;;;;;;9.52;5.00;;;-0.40;68.70;;;-0.03;61.20;97353.25;5042520;28;20059;-46
2020/12/27 01:27:59;;;;;;;9.60;4.33;;;-0.50;69.00;;;-0.04;60.97;97346.34;5042990;28;20059;-45
2020/12/27 01:30:27;;;;;;;8.77;3.80;;;-0.50;68.80;;;-0.05;60.87;97339.41;5042857;28;20088;-47
2020/12/27 01:33:01;;;;;;;12.53;5.40;;;-0.50;69.10;;;-0.04;61.43;97335.00;5059383;28;20041;-45
2020/12/27 01:35:46;;;;;;;8.57;4.53;;;-0.50;69.30;;;-0.05;61.48;97321.09;5042430;28;20050;-45
2020/12/27 01:38:16;;;;;;;12.07;5.53;;;-0.50;69.10;;;-0.07;60.84;97302.03;5042662;28;20199;-45
2020/12/27 01:40:44;;;;;;;8.90;4.27;;;-0.50;69.30;;;-0.06;61.76;97301.13;5042819;28;20065;-46
2020/12/27 01:43:14;;;;;;;6.37;4.07;;;-0.50;69.40;;;-0.06;61.38;97301.13;5044343;28;20049;-48
2020/12/27 01:45:42;;;;;;;7.70;4.37;;;-0.50;69.40;;;-0.07;61.09;97290.75;5042049;28;20245;-46
2020/12/27 01:48:15;;;;;;;9.67;5.00;;;-0.50;69.40;;;-0.06;61.55;97284.56;5042615;28;20076;-46
2020/12/27 01:50:52;;;;;;;12.93;4.97;;;-0.50;69.30;;;-0.06;61.15;97282.81;5027236;28;20049;-46
2020/12/27 01:53:33;;;;;;;13.67;6.43;;;-0.50;69.30;;;-0.06;61.25;97274.09;5028245;28;20048;-47
2020/12/27 01:56:04;;;;;;;9.87;6.53;;;-0.50;69.30;;;-0.07;61.36;97260.16;5042217;28;20053;-46
2020/12/27 01:58:41;;;;;;;9.37;4.10;;;-0.50;69.10;;;-0.05;61.22;97255.66;5027189;28;20045;-48
2020/12/27 02:01:15;;;;;;;13.70;6.03;;;-0.50;69.20;;;-0.02;60.93;97242.38;5027418;28;20051;-47
2020/12/27 02:03:49;;;;;;;10.23;4.77;;;-0.40;68.90;;;-0.02;61.16;97231.06;5042283;28;20060;-45
2020/12/27 02:06:32;;;;;;;11.43;4.40;;;-0.40;68.70;;;-0.01;61.80;97228.34;5027371;28;20294;-48
2020/12/27 02:09:11;;;;;;;7.30;3.40;;;-0.40;68.90;;;0.03;61.49;97228.16;5042247;28;20367;-46
2020/12/27 02:12:08;;;;;;;9.93;5.20;;;-0.40;68.50;;;0.03;61.62;97215.88;5042267;28;20252;-46
2020/12/27 02:14:40;;;;;;;14.20;5.00;;;-0.30;68.60;;;0.05;61.42;97208.75;5041837;28;20061;-47
2020/12/27 02:17:08;;;;;;;6.67;4.37;;;-0.30;68.40;;;0.04;61.41;97203.63;5042132;28;20200;-46
2020/12/27 02:19:58;;;;;;;8.70;4.33;;;-0.30;68.60;;;0.04;61.50;97187.91;5021526;28;20056;-45
2020/12/27 02:22:52;;;;;;;12.07;4.77;;;-0.30;68.60;;;0.03;61.65;97178.41;5022113;28;20053;-47
2020/12/27 02:25:23;;;;;;;14.07;6.43;;;-0.30;68.80;;;0.03;61.95;97168.78;5027967;28;20038;-47
2020/12/27 02:28:01;;;;;;;12.07;5.07;;;-0.30;68.80;;;0.04;61.99;97172.22;5019460;28;20223;-45
2020/12/27 02:30:29;;;;;;;11.83;5.67;;;-0.40;68.70;;;0.04;61.64;97151.28;5021609;28;20084;-49
2020/12/27 02:32:58;;;;;;;9.97;5.20;;;-0.30;68.90;;;0.04;61.70;97133.81;5021765;28;20046;-49
2020/12/27 02:35:27;;;;;;;9.37;4.77;;;-0.30;69.80;;;0.09;61.85;97125.63;5021761;28;20293;-45
2020/12/27 02:37:57;;;;;;;12.07;5.17;;;-0.30;69.00;;;0.11;61.14;97114.09;5023578;28;20057;-48
2020/12/27 02:40:25;;;;;;;10.77;4.53;;;-0.20;68.60;;;0.14;61.55;97118.28;5021855;28;20223;-45
2020/12/27 02:43:18;;;;;;;12.20;4.80;;;-0.20;68.50;;;0.11;61.63;97108.03;5026072;28;20064;-45
2020/12/27 02:45:50;;;;;;;9.17;4.20;;;-0.20;68.20;;;0.11;61.12;97101.00;5021632;28;20050;-45
2020/12/27 02:48:36;;;;;;;8.80;3.80;;;-0.30;68.60;;;0.12;61.09;97091.41;5028041;28;20295;-46
2020/12/27 02:51:11;;;;;;;6.07;3.33;;;-0.20;68.80;;;0.14;61.07;97085.09;5021623;28;20057;-48
2020/12/27 02:53:39;;;;;;;9.00;4.13;;;-0.20;68.50;;;0.14;61.91;97069.38;5023090;28;20058;-47
2020/12/27 02:56:07;;;;;;;7.33;3.97;;;-0.20;68.70;;;0.16;61.33;97064.03;5020770;28;20052;-48
2020/12/27 02:58:35;;;;;;;7.10;3.77;;;-0.20;68.40;;;0.15;61.45;97057.13;5021402;28;20363;-45
2020/12/27 03:01:04;;;;;;;7.30;3.67;;;-0.20;68.30;;;0.14;61.54;97058.91;5020443;28;20054;-44
2020/12/27 03:04:07;;;;;;;5.43;3.70;;;-0.20;68.40;;;0.15;61.26;97044.03;5022989;28;20056;-45
2020/12/27 03:06:37;;;;;;;7.07;3.50;;;-0.20;68.60;;;0.16;61.17;97035.25;5020913;28;20053;-46
2020/12/27 03:09:25;;;;;;;5.13;3.47;;;-0.20;68.40;;;0.16;61.71;97024.78;5021452;28;20050;-47
2020/12/27 03:12:19;;;;;;;6.00;3.23;;;-0.20;68.00;;;0.17;60.69;97026.44;5019305;28;20265;-45
2020/12/27 03:14:46;;;;;;;4.63;2.90;;;-0.20;68.30;;;0.19;61.23;97021.91;5021338;28;20046;-45
2020/12/27 03:17:33;;;;;;;4.70;3.13;;;-0.10;67.90;;;0.19;61.25;97016.69;5028471;28;20249;-46
2020/12/27 03:20:16;;;;;;;7.57;3.07;;;-0.10;67.50;;;0.21;60.70;97014.78;5037620;28;20069;-46
2020/12/27 03:22:59;;;;;;;5.63;3.00;;;0.00;67.50;;;0.19;60.72;97016.69;5020828;28;20235;-48
2020/12/27 03:25:47;;;;;;;7.87;2.97;;;-0.10;67.40;;;0.21;61.11;97006.09;5021808;28;20060;-45
2020/12/27 03:28:15;;;;;;;6.20;3.00;;;-0.10;67.20;;;0.26;60.38;96998.75;5020505;28;20058;-47
2020/12/27 03:30:47;;;;;;;5.03;2.80;;;-0.10;67.10;;;0.25;60.30;96987.44;5037405;28;20050;-45
2020/12/27 03:33:23;;;;;;;4.40;2.47;;;-0.10;66.90;;;0.26;61.14;96983.03;5020549;28;20045;-45
2020/12/27 03:36:02;;;;;;;4.27;2.33;;;-0.10;66.90;;;0.26;60.93;96969.97;5020057;28;20050;-47
2020/12/27 03:38:39;;;;;;;5.07;2.80;;;0.00;67.10;;;0.27;61.28;96969.00;5020938;28;20046;-45
2020/12/27 03:41:25;;;;;;;6.13;2.60;;;0.00;66.50;;;0.29;60.20;96965.34;5025749;28;20048;-45
2020/12/27 03:44:12;;;;;;;5.87;2.27;;;0.00;66.50;;;0.28;60.35;96965.44;5011668;28;20068;-48
2020/12/27 03:46:58;;;;;;;4.40;2.70;;;0.00;66.90;;;0.29;60.40;96952.25;5026764;28;20048;-45
2020/12/27 03:49:55;;;;;;;4.63;2.27;;;0.00;67.00;;;0.30;61.19;96946.03;5014669;28;20065;-48
2020/12/27 03:52:51;;;;;;;5.73;2.50;;;0.00;67.10;;;0.30;60.37;96939.97;5014897;28;20236;-48
2020/12/27 03:55:32;;;;;;;5.23;2.50;;;0.00;67.20;;;0.29;60.90;96930.44;5021715;28;20046;-45
2020/12/27 03:58:10;;;;;;;4.83;2.67;;;0.00;66.90;;;0.30;60.84;96911.19;5036863;28;20252;-48
2020/12/27 04:00:44;;;;;;;4.23;2.17;;;0.00;67.20;;;0.27;59.81;96907.00;5020439;28;20077;-45
2020/12/27 04:03:23;;;;;;;4.63;2.23;;;0.00;66.50;;;0.29;60.29;96897.25;5036788;28;20342;-47
2020/12/27 04:05:54;;;;;;;5.70;2.30;;;0.00;67.20;;;0.28;60.24;96889.50;5020074;28;20246;-46
2020/12/27 04:08:26;;;;;;;5.23;2.33;;;0.00;67.20;;;0.30;60.97;96882.38;5020303;28;20054;-45
2020/12/27 04:10:55;;;;;;;6.57;3.97;;;0.00;67.40;;;0.32;60.85;96888.31;5019947;28;20270;-47
2020/12/27 04:13:23;;;;;;;5.60;2.80;;;0.00;66.90;;;0.30;60.14;96882.38;5022254;28;20049;-46
2020/12/27 04:16:00;;;;;;;3.93;2.10;;;0.00;67.50;;;0.32;60.81;96876.06;5024040;28;20052;-48
2020/12/27 04:18:30;;;;;;;3.30;2.00;;;0.00;67.50;;;0.32;60.82;96873.44;5023939;28;20346;-46
2020/12/27 04:21:16;;;;;;;5.93;2.43;;;0.00;67.20;;;0.32;60.13;96860.34;5028384;28;20056;-47
2020/12/27 04:23:51;;;;;;;3.80;1.93;;;0.00;67.60;;;0.31;60.56;96863.06;5041218;28;20049;-47
2020/12/27 04:26:20;;;;;;;4.17;2.57;;;0.00;67.60;;;0.31;60.59;96853.47;5023955;28;20148;-48
2020/12/27 04:28:51;;;;;;;4.87;2.27;;;0.00;67.30;;;0.35;60.38;96849.66;5040888;28;20250;-48
2020/12/27 04:31:20;;;;;;;4.03;2.40;;;0.00;66.90;;;0.35;60.67;96839.19;5023765;28;20060;-44
2020/12/27 04:33:58;;;;;;;3.67;2.40;;;0.00;67.00;;;0.36;60.01;96840.84;5040700;28;20046;-47
2020/12/27 04:36:42;;;;;;;4.80;2.38;;;0.00;66.80;;;0.36;60.28;96824.28;5023893;28;20334;-49
2020/12/27 04:39:16;;;;;;;5.30;2.50;;;0.00;66.10;;;0.34;59.48;96827.03;5040721;28;20215;-47
2020/12/27 04:41:48;;;;;;;4.97;2.70;;;0.00;65.90;;;0.32;59.86;96821.06;5023980;28;20058;-50
2020/12/27 04:44:27;;;;;;;4.73;2.43;;;0.10;65.80;;;0.34;59.83;96818.34;5040651;28;20054;-47
2020/12/27 04:47:00;;;;;;;5.60;2.73;;;0.10;65.20;;;0.35;59.88;96809.53;5008499;28;20056;-46
2020/12/27 04:49:43;;;;;;;5.50;2.80;;;0.00;65.00;;;0.33;59.89;96803.56;5026303;28;20211;-47
2020/12/27 04:52:12;;;;;;;5.10;2.77;;;0.00;64.80;;;0.27;58.82;96798.81;5007932;28;20391;-45
2020/12/27 04:55:03;;;;;;;5.80;2.90;;;0.00;64.50;;;0.26;59.72;96798.00;5024831;28;20072;-48
2020/12/27 04:57:51;;;;;;;6.33;2.73;;;0.00;65.00;;;0.24;57.78;96785.97;5025380;28;20245;-48
2020/12/27 05:00:24;;;;;;;6.30;3.27;;;0.00;64.00;;;0.23;58.73;96786.91;5023533;28;20060;-46
2020/12/27 05:03:10;;;;;;;4.93;2.90;;;-0.10;64.30;;;0.23;59.86;96773.81;5030807;28;20056;-50
2020/12/27 05:05:40;;;;;;;4.87;2.90;;;-0.10;64.40;;;0.21;59.10;96767.88;5023528;28;20116;-46
2020/12/27 05:08:08;;;;;;;4.87;3.17;;;-0.10;64.50;;;0.19;59.40;96767.97;5023471;28;20068;-49
2020/12/27 05:11:04;;;;;;;6.60;3.03;;;-0.20;65.00;;;0.17;59.48;96762.88;5022204;28;20076;-46
2020/12/27 05:13:33;;;;;;;5.20;2.83;;;-0.20;65.10;;;0.17;59.61;96754.19;5023399;28;20054;-45
2020/12/27 05:16:18;;;;;;;6.83;2.67;;;-0.20;64.90;;;0.16;58.95;96744.69;5039354;28;20056;-47
2020/12/27 05:18:52;;;;;;;5.30;2.83;;;-0.20;65.60;;;0.17;59.02;96736.69;5023493;28;20219;-45
2020/12/27 05:21:26;;;;;;;5.77;3.23;;;-0.20;64.90;;;0.16;59.51;96721.94;5039888;28;20057;-45
2020/12/27 05:24:00;;;;;;;5.23;2.70;;;-0.20;65.20;;;0.16;58.17;96721.94;5022653;28;20061;-47
2020/12/27 05:26:39;;;;;;;5.40;3.27;;;-0.20;65.10;;;0.16;58.81;96705.41;5008706;28;20064;-48
2020/12/27 05:29:37;;;;;;;6.83;3.50;;;-0.20;65.00;;;0.14;58.83;96702.09;5023768;28;20056;-46
2020/12/27 05:32:28;;;;;;;5.97;3.17;;;-0.20;64.60;;;0.13;59.26;96697.78;5054347;22;20087;-42
2020/12/27 05:35:14;;;;;;;4.87;2.43;;;-0.20;65.60;;;0.12;59.17;96691.72;5026445;28;20048;-43
2020/12/27 05:38:07;;;;;;;5.70;3.17;;;-0.20;65.10;;;0.09;59.05;96662.34;5025971;28;20049;-42
2020/12/27 05:40:55;;;;;;;5.40;3.00;;;-0.10;65.30;;;0.09;59.25;96655.31;5027581;28;20059;-42
2020/12/27 05:43:38;;;;;;;4.13;2.63;;;-0.10;65.50;;;0.09;59.08;96639.59;5026191;28;20337;-42
2020/12/27 05:46:08;;;;;;;4.83;2.67;;;-0.10;65.40;;;0.12;59.74;96643.78;5026251;28;20337;-42
2020/12/27 05:48:38;;;;;;;7.77;2.87;;;-0.10;65.60;;;0.12;59.10;96636.75;5026043;28;20053;-42
2020/12/27 05:51:08;;;;;;;6.60;3.60;;;-0.10;65.40;;;0.12;59.42;96621.06;5010116;28;20069;-42
2020/12/27 05:53:44;;;;;;;5.73;3.10;;;-0.10;65.50;;;0.13;59.15;96620.09;5026021;28;20051;-46
2020/12/27 05:56:20;;;;;;;4.93;3.13;;;-0.10;64.70;;;0.15;59.32;96622.59;5025058;28;20049;-43
2020/12/27 05:58:57;;;;;;;4.53;2.97;;;-0.20;65.10;;;0.14;58.77;96611.31;5026298;28;20049;-43
2020/12/27 06:01:35;;;;;;;6.40;3.53;;;-0.10;64.70;;;0.12;58.65;96597.50;5022709;28;20063;-42
2020/12/27 06:04:38;;;;;;;6.13;3.37;;;-0.10;64.80;;;0.10;58.59;96596.78;5011112;28;20366;-42
2020/12/27 06:07:07;;;;;;;6.07;3.43;;;-0.10;64.70;;;0.11;59.67;96600.25;5010954;28;20267;-43
2020/12/27 06:10:05;;;;;;;5.37;3.10;;;-0.10;65.20;;;0.11;58.92;96597.63;5025633;28;20053;-43
2020/12/27 06:12:57;;;;;;;6.57;3.63;;;-0.10;64.30;;;0.10;58.39;96594.19;5025471;28;20380;-43
2020/12/27 06:15:30;;;;;;;6.80;3.17;;;-0.20;64.90;;;0.13;59.28;96580.00;5025148;28;20236;-42
2020/12/27 06:18:17;;;;;;;6.27;3.20;;;-0.20;65.30;;;0.11;59.33;96568.81;5047523;28;20060;-42
2020/12/27 06:21:10;;;;;;;5.70;2.93;;;-0.20;65.30;;;0.12;59.50;96568.72;5025298;28;20049;-44
2020/12/27 06:23:47;;;;;;;6.47;3.15;;;-0.20;65.30;;;0.10;59.54;96575.84;5025587;28;20053;-42
2020/12/27 06:26:17;;;;;;;7.13;3.00;;;-0.20;65.20;;;0.11;59.58;96558.34;5009513;28;20049;-42
2020/12/27 06:29:05;;;;;;;6.43;2.77;;;-0.20;65.30;;;0.11;59.07;96560.97;5028544;28;20337;-42
2020/12/27 06:31:42;;;;;;;5.57;3.37;;;-0.20;65.20;;;0.11;59.05;96566.22;5041592;28;20050;-43
2020/12/27 06:34:35;;;;;;;5.67;3.17;;;-0.20;65.00;;;0.09;59.23;96547.19;5012064;28;20041;-43
2020/12/27 06:37:07;;;;;;;5.50;2.90;;;-0.20;65.00;;;0.05;58.73;96549.22;5023661;28;20050;-43
2020/12/27 06:40:00;;;;;;;5.43;3.20;;;-0.30;65.40;;;0.02;59.60;96549.47;5042740;28;20055;-43
2020/12/27 06:43:17;;;;;;;7.23;3.23;;;-0.30;65.60;;;0.02;59.38;96543.38;5030207;28;20050;-45
2020/12/27 06:45:52;;;;;;;6.50;3.40;;;-0.30;65.40;;;0.04;58.76;96526.63;5024663;28;20049;-45
2020/12/27 06:48:37;;;;;;;6.20;3.50;;;-0.30;65.20;;;0.06;58.78;96521.25;5024945;28;20059;-42
2020/12/27 06:51:45;;;;;;;4.97;3.37;;;-0.30;65.50;;;0.08;58.86;96519.34;5038659;28;20057;-42
2020/12/27 06:54:52;;;;;;;6.33;2.70;;;-0.30;65.30;;;0.08;58.95;96503.63;5001408;28;20060;-43
2020/12/27 06:57:44;;;;;;;6.03;3.30;;;-0.30;65.30;;;0.07;58.96;96496.75;5023184;28;20049;-42
2020/12/27 07:00:35;;;;;;;5.70;3.30;;;-0.30;65.40;;;0.05;59.13;96491.63;5028430;28;20051;-45
2020/12/27 07:03:21;;;;;;;6.33;3.03;;;-0.30;65.60;;;0.07;58.97;96486.28;5039642;28;20061;-43
2020/12/27 07:05:50;;;;;;;4.27;2.80;;;-0.30;65.70;;;0.11;59.08;96479.84;5025258;28;20253;-44
2020/12/27 07:08:44;;;;;;;3.37;2.23;;;-0.20;65.50;;;0.15;58.66;96468.97;5041752;28;20056;-43
2020/12/27 07:11:18;;;;;;;3.55;2.33;;;-0.10;64.80;;;0.18;58.63;96467.94;5025530;28;20253;-44
2020/12/27 07:13:47;;;;;;;;;;;-0.10;64.80;;;0.22;58.39;96463.28;5043110;28;20063;-42
2020/12/27 07:16:17;;;;;;;4.37;2.10;;;0.00;64.10;;;0.26;58.90;96456.81;5042020;28;19917;-44
2020/12/27 07:18:49;;;;;;;3.93;2.20;;;0.00;64.60;;;0.30;59.19;96458.22;5024478;28;20060;-43
2020/12/27 07:21:22;;;;;;;4.53;2.63;;;0.10;64.50;;;0.32;58.96;96458.94;5042411;28;20055;-43
2020/12/27 07:24:09;;;;;;;4.53;2.60;;;0.10;64.70;;;0.34;58.84;96454.41;5042465;28;20038;-42
2020/12/27 07:26:43;;;;;;;3.53;2.57;;;0.10;64.20;;;0.37;59.21;96454.16;5042025;28;20059;-42
2020/12/27 07:29:13;;;;;;;;;;;0.10;64.30;;;0.36;58.95;96455.94;5025223;28;20071;-43
2020/12/27 07:31:41;;;;;;;4.13;2.60;;;0.10;64.00;;;0.37;58.47;96435.84;5042230;28;20023;-43
2020/12/27 07:34:10;;;;;;;3.93;2.27;;;0.10;64.40;;;0.38;58.85;96433.06;5042268;28;20049;-46
2020/12/27 07:36:38;;;;;;;6.00;2.30;;;0.10;64.80;;;0.44;59.50;96421.25;5024626;28;20056;-42
2020/12/27 07:39:58;;;;;;;4.40;2.40;;;0.20;65.00;;;0.46;58.92;96418.50;5041418;28;20050;-42
2020/12/27 07:42:31;;;;;;;4.87;2.37;;;0.20;64.30;;;0.51;58.41;96411.09;5042090;28;20260;-42
2020/12/27 07:45:12;;;;;;;5.83;2.60;;;0.30;64.70;;;0.50;58.82;96410.25;5041038;28;20455;-42
2020/12/27 07:47:42;;;;;;;6.60;2.77;;;0.30;64.40;;;0.50;58.67;96402.41;5041705;28;20049;-44
2020/12/27 07:50:16;;;;;;;6.00;3.20;;;0.30;64.60;;;0.52;58.96;96394.41;5024645;28;20236;-43
2020/12/27 07:52:46;;;;;;;72.47;24.00;;;0.30;64.60;;;0.53;59.36;96391.69;5042530;28;20059;-42
2020/12/27 07:55:31;;;;;;;24.07;11.73;;;0.40;64.50;;;0.55;59.34;96392.38;5040536;28;20358;-43
2020/12/27 07:58:03;;;;;;;35.60;16.73;;;0.40;64.20;;;0.53;58.06;96388.22;5039692;28;20045;-44
2020/12/27 08:00:36;;;;;;;13.27;7.10;;;0.30;64.50;;;0.52;58.89;96376.09;5040987;28;20047;-42
2020/12/27 08:03:09;;;;;;;10.25;5.60;;;0.30;64.50;;;0.57;58.61;96376.53;5040557;28;20045;-43
2020/12/27 08:05:40;;;;;;;9.03;5.30;;;0.40;64.50;;;0.58;58.61;96365.94;5040505;28;20241;-41
2020/12/27 08:08:10;;;;;;;6.37;3.63;;;0.40;64.20;;;0.59;59.02;96369.38;5040278;28;20337;-42
2020/12/27 08:10:39;;;;;;;7.07;4.03;;;0.40;64.20;;;0.62;58.86;96374.38;5040043;28;20060;-45
2020/12/27 08:13:07;;;;;;;7.77;3.50;;;0.40;64.30;;;0.65;58.44;96370.66;5022853;28;20351;-42
2020/12/27 08:15:41;;;;;;;9.43;4.07;;;0.40;64.50;;;0.66;58.14;96357.41;5040360;28;20049;-45
2020/12/27 08:18:10;;;;;;;8.35;4.63;;;0.40;64.10;;;0.64;58.06;96348.88;5041052;28;20053;-42
2020/12/27 08:20:50;;;;;;;9.63;5.07;;;0.40;63.50;;;0.66;58.14;96344.31;5037256;28;20037;-44
2020/12/27 08:23:19;;;;;;;7.00;3.87;;;0.40;63.60;;;0.68;58.61;96342.41;5046338;28;20037;-43
2020/12/27 08:25:56;;;;;;;7.47;3.30;;;0.50;63.10;;;0.68;57.95;96331.06;5060301;28;20379;-42
2020/12/27 08:28:24;;;;;;;5.97;3.30;;;0.50;63.20;;;0.72;57.75;96316.78;5059872;28;20053;-44
2020/12/27 08:30:51;;;;;;;6.40;3.53;;;0.50;63.20;;;0.76;57.79;96331.25;5060605;28;20222;-44
2020/12/27 08:33:20;;;;;;;5.60;3.00;;;0.60;63.20;;;0.78;57.72;96326.72;5059948;28;20232;-42
2020/12/27 08:35:51;;;;;;;6.77;3.50;;;0.60;62.70;;;0.80;57.52;96319.56;5059946;28;20056;-42
2020/12/27 08:38:28;;;;;;;7.03;4.33;;;0.60;62.50;;;0.81;57.62;96320.38;5059346;28;20045;-42
2020/12/27 08:41:22;;;;;;;7.30;4.40;;;0.70;62.70;;;0.84;56.67;96309.66;5060444;28;20344;-42
2020/12/27 08:44:45;;;;;;;6.90;3.17;;;0.70;62.10;;;0.87;57.14;96299.69;5058908;28;20049;-42
2020/12/27 08:47:36;;;;;;;5.90;4.03;;;0.70;61.00;;;0.86;55.89;96297.22;5042859;28;20275;-42
2020/12/27 08:50:09;;;;;;;6.87;3.83;;;0.70;60.40;;;0.87;56.93;96294.47;5059928;28;20236;-43
2020/12/27 08:52:37;;;;;;;5.93;3.90;;;0.70;60.90;;;0.90;56.61;96285.53;5043208;28;20057;-42
2020/12/27 08:55:10;;;;;;;7.37;3.60;;;0.70;60.40;;;0.93;57.20;96285.22;5059966;28;20047;-43
2020/12/27 08:57:38;;;;;;;7.27;4.13;;;0.70;60.90;;;0.96;57.05;96282.34;5060373;28;20370;-44
2020/12/27 09:00:11;;;;;;;4.90;3.13;;;0.80;61.00;;;1.00;56.93;96280.28;5031846;28;20286;-43
2020/12/27 09:02:40;;;;;;;7.32;4.38;;;0.80;60.50;;;1.01;56.89;96266.22;5042673;28;20057;-42
2020/12/27 09:05:11;;;;;;;7.20;3.80;;;0.90;60.80;;;1.04;56.30;96268.56;5042605;28;20051;-42
2020/12/27 09:07:41;;;;;;;6.37;3.60;;;0.90;61.00;;;1.00;55.19;96257.53;5042867;28;20053;-42
2020/12/27 09:10:27;;;;;;;6.83;5.00;;;0.90;60.40;;;1.04;56.16;96258.91;5043027;28;20052;-43
2020/12/27 09:13:06;;;;;;;6.93;4.43;;;1.00;60.80;;;1.01;55.93;96251.34;5026216;28;20057;-44
2020/12/27 09:15:35;;;;;;;10.27;5.97;;;1.00;60.50;;;1.04;56.58;96240.56;5025357;28;20041;-42
2020/12/27 09:18:12;;;;;;;9.43;7.77;;;0.90;61.00;;;1.08;56.58;96233.25;5042801;28;20046;-42
2020/12/27 09:20:42;;;;;;;8.30;4.77;;;0.90;60.80;;;1.12;56.59;96234.63;5043753;28;20049;-44
2020/12/27 09:23:19;;;;;;;7.03;4.37;;;1.00;61.30;;;1.15;56.16;96237.81;5042891;28;20045;-42
2020/12/27 09:25:48;;;;;;;19.93;10.20;;;1.00;60.80;;;1.14;56.97;96230.94;5043355;28;20077;-42
2020/12/27 09:28:21;;;;;;;20.93;9.30;;;1.00;60.90;;;1.18;56.52;96219.22;5041650;28;20345;-42
2020/12/27 09:31:13;;;;;;;10.98;6.75;;;1.10;60.80;;;1.16;55.06;96217.66;5042243;28;20261;-42
2020/12/27 09:33:46;;;;;;;12.20;6.27;;;1.10;60.00;;;1.16;55.68;96209.81;5022823;28;20054;-42
2020/12/27 09:36:15;;;;;;;11.15;6.57;;;1.10;61.00;;;1.20;56.59;96200.69;5023795;28;20038;-41
2020/12/27 09:38:45;;;;;;;10.23;6.10;;;1.20;61.20;;;1.18;55.63;96200.84;5024451;28;20219;-41
2020/12/27 09:41:20;;;;;;;6.17;4.00;;;1.20;61.00;;;1.11;55.67;96196.31;5023751;28;20042;-41
2020/12/27 09:44:02;;;;;;;6.03;3.90;;;1.10;60.80;;;1.11;55.82;96186.63;5023429;28;20042;-46
2020/12/27 09:46:44;;;;;;;5.60;3.90;;;1.20;61.20;;;1.07;56.12;96185.25;5023384;28;20056;-42
2020/12/27 09:49:32;;;;;;;5.83;2.87;;;1.10;61.10;;;1.06;56.41;96183.59;5024315;28;20357;-42
2020/12/27 09:52:12;;;;;;;4.63;3.07;;;1.20;61.10;;;1.09;56.87;96170.22;5006485;28;20056;-42
2020/12/27 09:54:42;;;;;;;5.30;3.20;;;1.20;61.40;;;1.14;57.24;96161.94;5023320;28;20301;-42
2020/12/27 09:57:18;;;;;;;4.77;3.30;;;1.20;61.70;;;1.17;56.71;96148.56;5023766;28;20227;-42
2020/12/27 09:59:51;;;;;;;7.97;4.40;;;1.20;61.60;;;1.23;57.53;96129.63;5024158;28;20060;-42
2020/12/27 10:02:21;;;;;;;17.77;8.90;;;1.30;61.60;;;1.30;56.82;96119.41;5023917;28;20053;-42
2020/12/27 10:04:49;;;;;;;12.47;6.00;;;1.30;61.50;;;1.32;56.67;96105.22;5023204;28;20056;-42
2020/12/27 10:07:17;;;;;;;6.40;4.13;;;1.30;61.80;;;1.37;56.55;96096.91;5023752;28;20052;-42
2020/12/27 10:09:44;;;;;;;8.43;3.93;;;1.40;61.70;;;1.41;57.41;96084.34;5023914;28;20249;-42
2020/12/27 10:12:12;;;;;;;8.83;4.13;;;1.40;60.90;;;1.43;56.94;96077.97;5023567;28;20056;-42
2020/12/27 10:14:40;;;;;;;7.37;4.20;;;1.40;60.80;;;1.46;57.23;96061.97;5022919;28;20050;-43
2020/12/27 10:17:07;;;;;;;6.33;3.70;;;1.40;60.90;;;1.37;55.77;96063.63;5023446;28;20045;-42
2020/12/27 10:19:35;;;;;;;7.70;4.60;;;1.40;60.30;;;1.48;56.63;96056.59;5023779;28;20044;-43
2020/12/27 10:22:03;;;;;;;6.73;5.33;;;1.50;61.80;;;1.53;56.56;96020.25;5023859;28;20233;-42
2020/12/27 10:24:34;;;;;;;7.33;4.27;;;1.50;61.60;;;1.57;55.95;96024.22;5023580;28;20237;-43
2020/12/27 10:27:04;;;;;;;5.10;3.87;;;1.60;60.70;;;1.52;55.52;96018.59;5023334;28;20052;-43
2020/12/27 10:29:34;;;;;;;7.27;3.17;;;1.60;59.30;;;1.57;56.12;96009.31;5022847;28;20244;-42
2020/12/27 10:32:06;;;;;;;4.43;2.97;;;1.50;60.90;;;1.58;56.17;96004.91;5022456;28;20376;-42
2020/12/27 10:34:34;;;;;;;5.03;2.87;;;1.60;61.00;;;1.61;55.79;95985.41;5023266;28;20060;-42
2020/12/27 10:37:04;;;;;;;5.50;3.73;;;1.60;60.80;;;1.60;56.46;95989.84;5033671;28;20047;-41
2020/12/27 10:39:33;;;;;;;5.40;3.43;;;1.60;61.10;;;1.65;56.17;95981.53;5042882;28;20068;-42
2020/12/27 10:42:00;;;;;;;4.90;2.93;;;1.70;61.10;;;1.55;55.67;95968.47;5042993;28;20045;-42
2020/12/27 10:44:28;;;;;;;4.37;3.40;;;1.60;60.30;;;1.62;56.74;95956.41;5042144;28;20052;-42
2020/12/27 10:46:55;;;;;;;7.37;3.83;;;1.60;61.10;;;1.63;56.20;95951.97;5042540;28;20345;-42
2020/12/27 10:49:23;;;;;;;12.07;6.57;;;1.70;61.00;;;1.65;56.10;95937.78;5042104;28;20053;-42
2020/12/27 10:51:52;;;;;;;6.53;4.20;;;1.70;62.10;;;1.69;56.54;95923.38;5042630;28;20055;-42
2020/12/27 10:54:20;;;;;;;4.30;3.20;;;1.80;60.80;;;1.70;56.35;95914.53;5042080;28;20049;-43
2020/12/27 10:56:48;;;;;;;5.43;3.60;;;1.80;61.00;;;1.77;56.96;95912.16;5041209;28;20071;-42
2020/12/27 10:59:16;;;;;;;9.27;5.27;;;1.80;61.50;;;1.82;57.19;95896.75;5042846;28;20045;-45
2020/12/27 11:01:46;;;;;;;11.70;6.33;;;1.90;61.60;;;1.87;56.79;95901.56;5041684;28;20049;-42
2020/12/27 11:04:14;;;;;;;17.93;8.53;;;1.90;61.70;;;1.89;56.91;95891.75;5042618;28;20051;-42